createdAt,value
2023-02-23T00:00:10.092Z,1014.53
2023-02-23T00:00:42.228Z,1014.53
2023-02-23T00:01:13.208Z,1014.53
2023-02-23T00:01:45.884Z,1014.53
2023-02-23T00:02:17.059Z,1014.53
2023-02-23T00:02:50.142Z,1014.42
2023-02-23T00:03:21.074Z,1014.42
2023-02-23T00:03:37.214Z,1014.53
2023-02-23T00:04:09.240Z,1014.53
2023-02-23T00:04:41.049Z,1014.53
2023-02-23T00:05:14.388Z,1014.53
2023-02-23T00:05:45.192Z,1014.53
2023-02-23T00:06:17.791Z,1014.53
2023-02-23T00:06:49.157Z,1014.53
2023-02-23T00:07:22.058Z,1014.53
2023-02-23T00:07:53.213Z,1014.42
2023-02-23T00:08:26.073Z,1014.42
2023-02-23T00:08:57.151Z,1014.42
2023-02-23T00:09:29.929Z,1014.42
2023-02-23T00:10:01.430Z,1014.42
2023-02-23T00:10:34.048Z,1014.42
2023-02-23T00:11:05.103Z,1014.42
2023-02-23T00:11:37.896Z,1014.32
2023-02-23T00:12:08.970Z,1014.32
2023-02-23T00:12:42.102Z,1014.42
2023-02-23T00:13:13.200Z,1014.42
2023-02-23T00:13:45.743Z,1014.32
2023-02-23T00:14:17.074Z,1014.32
2023-02-23T00:14:49.855Z,1014.42
2023-02-23T00:15:22.237Z,1014.42
2023-02-23T00:15:54.121Z,1014.53
2023-02-23T00:16:25.138Z,1014.32
2023-02-23T00:16:57.852Z,1014.32
2023-02-23T00:17:29.062Z,1014.32
2023-02-23T00:18:02.247Z,1014.32
2023-02-23T00:18:33.155Z,1014.32
2023-02-23T00:19:06.018Z,1014.32
2023-02-23T00:19:37.088Z,1014.42
2023-02-23T00:20:10.095Z,1014.42
2023-02-23T00:20:40.995Z,1014.53
2023-02-23T00:21:14.017Z,1014.53
2023-02-23T00:21:45.140Z,1014.53
2023-02-23T00:22:17.949Z,1014.53
2023-02-23T00:22:49.024Z,1014.42
2023-02-23T00:23:21.945Z,1014.42
2023-02-23T00:23:53.149Z,1014.42
2023-02-23T00:24:25.773Z,1014.42
2023-02-23T00:24:57.039Z,1014.42
2023-02-23T00:25:30.422Z,1014.22
2023-02-23T00:26:01.220Z,1014.22
2023-02-23T00:26:34.025Z,1014.53
2023-02-23T00:27:05.071Z,1014.53
2023-02-23T00:27:38.223Z,1014.22
2023-02-23T00:28:09.027Z,1014.22
2023-02-23T00:28:41.917Z,1014.22
2023-02-23T00:29:13.157Z,1014.22
2023-02-23T00:29:45.865Z,1014.53
2023-02-23T00:30:18.120Z,1014.53
2023-02-23T00:30:50.031Z,1014.42
2023-02-23T00:31:21.238Z,1014.42
2023-02-23T00:31:53.882Z,1014.53
2023-02-23T00:32:25.231Z,1014.22
2023-02-23T00:32:58.183Z,1014.22
2023-02-23T00:33:29.257Z,1014.32
2023-02-23T00:34:02.669Z,1014.32
2023-02-23T00:34:33.185Z,1014.32
2023-02-23T00:35:07.155Z,1014.32
2023-02-23T00:35:37.084Z,1014.42
2023-02-23T00:36:10.090Z,1014.42
2023-02-23T00:36:41.176Z,1014.42
2023-02-23T00:37:13.787Z,1014.42
2023-02-23T00:37:45.146Z,1014.32
2023-02-23T00:38:17.910Z,1014.32
2023-02-23T00:38:49.102Z,1014.42
2023-02-23T00:39:21.925Z,1014.42
2023-02-23T00:39:53.227Z,1014.32
2023-02-23T00:40:26.234Z,1014.22
2023-02-23T00:40:57.091Z,1014.22
2023-02-23T00:41:31.040Z,1014.22
2023-02-23T00:42:01.196Z,1014.22
2023-02-23T00:42:33.864Z,1014.22
2023-02-23T00:43:05.050Z,1014.22
2023-02-23T00:43:38.016Z,1014.42
2023-02-23T00:44:09.124Z,1014.42
2023-02-23T00:44:41.887Z,1014.22
2023-02-23T00:45:14.024Z,1014.22
2023-02-23T00:45:46.340Z,1014.42
2023-02-23T00:46:17.129Z,1014.42
2023-02-23T00:46:49.958Z,1014.53
2023-02-23T00:47:21.088Z,1014.53
2023-02-23T00:47:54.022Z,1014.42
2023-02-23T00:48:25.057Z,1014.12
2023-02-23T00:48:58.264Z,1014.12
2023-02-23T00:49:29.193Z,1014.42
2023-02-23T00:50:02.339Z,1014.42
2023-02-23T00:50:33.111Z,1014.42
2023-02-23T00:51:06.747Z,1014.42
2023-02-23T00:51:37.257Z,1014.53
2023-02-23T00:52:09.841Z,1014.53
2023-02-23T00:52:41.146Z,1014.32
2023-02-23T00:53:13.931Z,1014.32
2023-02-23T00:53:44.920Z,1014.53
2023-02-23T00:54:17.822Z,1014.53
2023-02-23T00:54:49.096Z,1014.12
2023-02-23T00:55:23.399Z,1014.12
2023-02-23T00:55:53.130Z,1014.53
2023-02-23T00:56:25.796Z,1014.53
2023-02-23T00:56:57.113Z,1014.53
2023-02-23T00:57:29.953Z,1014.42
2023-02-23T00:58:01.082Z,1014.42
2023-02-23T00:58:34.157Z,1014.53
2023-02-23T00:59:05.175Z,1014.53
2023-02-23T00:59:37.803Z,1014.42
2023-02-23T01:00:10.218Z,1014.42
2023-02-23T01:00:41.858Z,1014.53
2023-02-23T01:01:12.952Z,1014.53
2023-02-23T01:01:45.945Z,1014.63
2023-02-23T01:02:17.201Z,1014.63
2023-02-23T01:02:50.121Z,1014.53
2023-02-23T01:03:21.175Z,1014.53
2023-02-23T01:03:37.197Z,1014.53
2023-02-23T01:04:09.025Z,1014.53
2023-02-23T01:04:41.045Z,1014.32
2023-02-23T01:05:13.490Z,1014.32
2023-02-23T01:05:45.047Z,1014.42
2023-02-23T01:06:17.849Z,1014.42
2023-02-23T01:06:49.244Z,1014.32
2023-02-23T01:07:22.165Z,1014.32
2023-02-23T01:07:53.056Z,1014.42
2023-02-23T01:08:25.960Z,1014.63
2023-02-23T01:08:57.045Z,1014.63
2023-02-23T01:09:29.825Z,1014.63
2023-02-23T01:10:01.413Z,1014.63
2023-02-23T01:10:33.895Z,1014.53
2023-02-23T01:11:05.144Z,1014.53
2023-02-23T01:11:37.772Z,1014.63
2023-02-23T01:12:09.020Z,1014.63
2023-02-23T01:12:42.131Z,1014.32
2023-02-23T01:13:13.023Z,1014.32
2023-02-23T01:13:45.876Z,1014.53
2023-02-23T01:14:17.061Z,1014.53
2023-02-23T01:14:49.972Z,1014.42
2023-02-23T01:15:22.136Z,1014.42
2023-02-23T01:15:54.229Z,1014.63
2023-02-23T01:16:25.103Z,1014.53
2023-02-23T01:16:57.737Z,1014.53
2023-02-23T01:17:28.988Z,1014.42
2023-02-23T01:18:02.260Z,1014.42
2023-02-23T01:18:33.093Z,1014.53
2023-02-23T01:19:05.902Z,1014.53
2023-02-23T01:19:37.115Z,1014.53
2023-02-23T01:20:10.178Z,1014.53
2023-02-23T01:20:42.397Z,1014.42
2023-02-23T01:21:13.881Z,1014.42
2023-02-23T01:21:45.131Z,1014.53
2023-02-23T01:22:18.211Z,1014.53
2023-02-23T01:22:49.032Z,1014.63
2023-02-23T01:23:05.228Z,1014.63
2023-02-23T01:23:37.070Z,1014.53
2023-02-23T01:24:09.060Z,1014.53
2023-02-23T01:24:41.216Z,1014.53
2023-02-23T01:25:13.308Z,1014.53
2023-02-23T01:25:45.875Z,1014.53
2023-02-23T01:26:17.118Z,1014.53
2023-02-23T01:26:49.974Z,1014.53
2023-02-23T01:27:21.045Z,1014.53
2023-02-23T01:27:55.120Z,1014.42
2023-02-23T01:28:25.139Z,1014.53
2023-02-23T01:28:58.084Z,1014.53
2023-02-23T01:29:29.158Z,1014.32
2023-02-23T01:30:03.459Z,1014.32
2023-02-23T01:30:33.152Z,1014.32
2023-02-23T01:31:06.245Z,1014.32
2023-02-23T01:31:37.222Z,1014.42
2023-02-23T01:32:10.166Z,1014.42
2023-02-23T01:32:41.022Z,1014.22
2023-02-23T01:33:14.092Z,1014.22
2023-02-23T01:33:45.108Z,1014.53
2023-02-23T01:34:18.099Z,1014.53
2023-02-23T01:34:48.974Z,1014.32
2023-02-23T01:35:05.464Z,1014.32
2023-02-23T01:35:36.962Z,1014.42
2023-02-23T01:36:09.103Z,1014.42
2023-02-23T01:36:41.134Z,1014.53
2023-02-23T01:37:13.180Z,1014.53
2023-02-23T01:37:44.978Z,1014.42
2023-02-23T01:38:17.051Z,1014.42
2023-02-23T01:38:49.268Z,1014.53
2023-02-23T01:39:21.089Z,1014.53
2023-02-23T01:39:54.085Z,1014.53
2023-02-23T01:40:25.692Z,1014.53
2023-02-23T01:40:57.991Z,1014.53
2023-02-23T01:41:29.043Z,1014.32
2023-02-23T01:42:02.064Z,1014.32
2023-02-23T01:42:33.086Z,1014.53
2023-02-23T01:43:05.961Z,1014.53
2023-02-23T01:43:37.166Z,1014.42
2023-02-23T01:44:10.049Z,1014.42
2023-02-23T01:44:41.129Z,1014.42
2023-02-23T01:45:15.283Z,1014.42
2023-02-23T01:45:45.348Z,1014.22
2023-02-23T01:46:17.893Z,1014.22
2023-02-23T01:46:49.031Z,1014.53
2023-02-23T01:47:21.868Z,1014.53
2023-02-23T01:47:53.230Z,1014.32
2023-02-23T01:48:25.868Z,1014.32
2023-02-23T01:48:57.127Z,1014.32
2023-02-23T01:49:30.002Z,1014.42
2023-02-23T01:50:01.397Z,1014.42
2023-02-23T01:50:33.940Z,1014.42
2023-02-23T01:51:05.206Z,1014.42
2023-02-23T01:51:37.939Z,1014.32
2023-02-23T01:52:09.032Z,1014.32
2023-02-23T01:52:41.960Z,1014.22
2023-02-23T01:53:13.206Z,1014.22
2023-02-23T01:53:45.821Z,1014.22
2023-02-23T01:54:17.181Z,1014.22
2023-02-23T01:54:50.843Z,1014.53
2023-02-23T01:55:21.551Z,1014.53
2023-02-23T01:55:53.704Z,1014.12
2023-02-23T01:56:25.124Z,1014.32
2023-02-23T01:56:58.544Z,1014.32
2023-02-23T01:57:29.064Z,1014.32
2023-02-23T01:58:02.725Z,1014.32
2023-02-23T01:58:33.043Z,1014.32
2023-02-23T01:59:06.053Z,1014.32
2023-02-23T01:59:37.003Z,1014.22
2023-02-23T02:00:11.010Z,1014.22
2023-02-23T02:00:41.248Z,1014.42
2023-02-23T02:01:13.851Z,1014.42
2023-02-23T02:01:45.289Z,1014.32
2023-02-23T02:02:17.991Z,1014.32
2023-02-23T02:02:49.169Z,1014.12
2023-02-23T02:03:21.921Z,1014.12
2023-02-23T02:03:53.028Z,1014.32
2023-02-23T02:04:26.123Z,1014.63
2023-02-23T02:04:57.015Z,1014.63
2023-02-23T02:05:30.289Z,1014.12
2023-02-23T02:06:01.220Z,1014.12
2023-02-23T02:06:33.646Z,1014.42
2023-02-23T02:07:05.014Z,1014.42
2023-02-23T02:07:38.095Z,1014.42
2023-02-23T02:08:09.236Z,1014.42
2023-02-23T02:08:41.760Z,1014.53
2023-02-23T02:09:13.214Z,1014.53
2023-02-23T02:09:45.901Z,1014.42
2023-02-23T02:10:17.328Z,1014.42
2023-02-23T02:10:49.774Z,1014.32
2023-02-23T02:11:21.320Z,1014.32
2023-02-23T02:11:54.016Z,1014.53
2023-02-23T02:12:25.118Z,1014.22
2023-02-23T02:12:58.018Z,1014.22
2023-02-23T02:13:29.253Z,1014.32
2023-02-23T02:14:01.787Z,1014.32
2023-02-23T02:14:33.051Z,1014.42
2023-02-23T02:15:07.002Z,1014.42
2023-02-23T02:15:37.330Z,1014.22
2023-02-23T02:16:09.796Z,1014.22
2023-02-23T02:16:41.072Z,1014.42
2023-02-23T02:17:14.087Z,1014.42
2023-02-23T02:17:45.135Z,1014.12
2023-02-23T02:18:19.504Z,1014.12
2023-02-23T02:18:49.113Z,1014.32
2023-02-23T02:19:22.020Z,1014.32
2023-02-23T02:19:53.255Z,1014.32
2023-02-23T02:20:26.260Z,1014.12
2023-02-23T02:20:57.139Z,1014.12
2023-02-23T02:21:29.859Z,1014.12
2023-02-23T02:22:01.123Z,1014.12
2023-02-23T02:22:34.000Z,1014.22
2023-02-23T02:23:05.212Z,1014.22
2023-02-23T02:23:37.716Z,1014.42
2023-02-23T02:24:09.031Z,1014.42
2023-02-23T02:24:41.849Z,1014.42
2023-02-23T02:25:13.410Z,1014.42
2023-02-23T02:25:45.864Z,1014.32
2023-02-23T02:26:17.185Z,1014.32
2023-02-23T02:26:49.988Z,1014.22
2023-02-23T02:27:21.032Z,1014.22
2023-02-23T02:27:53.877Z,1014.32
2023-02-23T02:28:25.124Z,1014.22
2023-02-23T02:28:58.866Z,1014.22
2023-02-23T02:29:29.190Z,1014.02
2023-02-23T02:30:03.483Z,1014.02
2023-02-23T02:30:33.338Z,1014.22
2023-02-23T02:31:09.977Z,1014.22
2023-02-23T02:31:37.275Z,1014.12
2023-02-23T02:32:09.304Z,1014.12
2023-02-23T02:32:41.075Z,1014.32
2023-02-23T02:33:13.092Z,1014.32
2023-02-23T02:33:45.978Z,1014.32
2023-02-23T02:34:17.141Z,1014.32
2023-02-23T02:34:49.910Z,1014.22
2023-02-23T02:35:21.401Z,1014.22
2023-02-23T02:35:53.910Z,1014.32
2023-02-23T02:36:24.983Z,1014.12
2023-02-23T02:36:58.837Z,1014.12
2023-02-23T02:37:29.170Z,1014.32
2023-02-23T02:38:02.109Z,1014.32
2023-02-23T02:38:33.081Z,1014.22
2023-02-23T02:39:06.065Z,1014.22
2023-02-23T02:39:37.438Z,1014.12
2023-02-23T02:40:11.008Z,1014.12
2023-02-23T02:40:41.158Z,1014.12
2023-02-23T02:41:14.165Z,1014.12
2023-02-23T02:41:44.937Z,1014.22
2023-02-23T02:42:17.940Z,1014.22
2023-02-23T02:42:49.131Z,1014.02
2023-02-23T02:43:22.223Z,1014.02
2023-02-23T02:43:53.074Z,1014.12
2023-02-23T02:44:25.926Z,1014.32
2023-02-23T02:44:57.097Z,1014.32
2023-02-23T02:45:31.114Z,1014.12
2023-02-23T02:46:01.248Z,1014.12
2023-02-23T02:46:34.056Z,1014.32
2023-02-23T02:47:05.130Z,1014.32
2023-02-23T02:47:37.953Z,1014.32
2023-02-23T02:48:09.161Z,1014.32
2023-02-23T02:48:41.992Z,1014.22
2023-02-23T02:49:13.015Z,1014.22
2023-02-23T02:49:46.013Z,1014.02
2023-02-23T02:50:17.465Z,1014.02
2023-02-23T02:50:49.887Z,1014.42
2023-02-23T02:51:21.312Z,1014.42
2023-02-23T02:51:37.319Z,1013.92
2023-02-23T02:52:09.033Z,1013.92
2023-02-23T02:52:41.248Z,1014.22
2023-02-23T02:53:13.152Z,1014.22
2023-02-23T02:53:45.076Z,1014.12
2023-02-23T02:54:17.887Z,1014.12
2023-02-23T02:54:49.193Z,1014.32
2023-02-23T02:55:22.131Z,1014.32
2023-02-23T02:55:53.146Z,1014.12
2023-02-23T02:56:26.008Z,1014.32
2023-02-23T02:56:57.219Z,1014.32
2023-02-23T02:57:29.979Z,1014.32
2023-02-23T02:58:01.179Z,1014.32
2023-02-23T02:58:33.911Z,1014.42
2023-02-23T02:59:05.209Z,1014.42
2023-02-23T02:59:37.911Z,1014.22
2023-02-23T03:00:10.386Z,1014.22
2023-02-23T03:00:42.563Z,1014.22
2023-02-23T03:01:13.011Z,1014.22
2023-02-23T03:01:45.885Z,1014.12
2023-02-23T03:02:17.173Z,1014.12
2023-02-23T03:02:49.902Z,1014.32
2023-02-23T03:03:21.074Z,1014.32
2023-02-23T03:03:37.316Z,1014.22
2023-02-23T03:04:09.085Z,1014.22
2023-02-23T03:04:41.174Z,1014.12
2023-02-23T03:05:14.472Z,1014.12
2023-02-23T03:05:45.062Z,1014.22
2023-02-23T03:06:17.917Z,1014.22
2023-02-23T03:06:49.244Z,1014.22
2023-02-23T03:07:21.952Z,1014.22
2023-02-23T03:07:53.063Z,1014.12
2023-02-23T03:08:25.945Z,1014.22
2023-02-23T03:08:57.222Z,1014.22
2023-02-23T03:09:29.841Z,1014.22
2023-02-23T03:10:01.540Z,1014.22
2023-02-23T03:10:34.081Z,1014.22
2023-02-23T03:11:05.156Z,1014.22
2023-02-23T03:11:37.866Z,1014.22
2023-02-23T03:12:09.198Z,1014.22
2023-02-23T03:12:41.912Z,1014.22
2023-02-23T03:13:13.143Z,1014.22
2023-02-23T03:13:46.027Z,1014.22
2023-02-23T03:14:17.228Z,1014.22
2023-02-23T03:14:49.903Z,1014.22
2023-02-23T03:15:22.256Z,1014.22
2023-02-23T03:15:54.185Z,1014.12
2023-02-23T03:16:25.108Z,1014.53
2023-02-23T03:16:58.070Z,1014.53
2023-02-23T03:17:29.196Z,1014.22
2023-02-23T03:18:03.101Z,1014.22
2023-02-23T03:18:33.016Z,1014.12
2023-02-23T03:19:05.989Z,1014.12
2023-02-23T03:19:37.213Z,1014.12
2023-02-23T03:20:10.119Z,1014.12
2023-02-23T03:20:41.035Z,1014.12
2023-02-23T03:21:14.004Z,1014.12
2023-02-23T03:21:45.227Z,1014.32
2023-02-23T03:22:17.970Z,1014.32
2023-02-23T03:22:49.142Z,1014.12
2023-02-23T03:23:21.908Z,1014.12
2023-02-23T03:23:53.103Z,1014.32
2023-02-23T03:24:25.949Z,1014.12
2023-02-23T03:24:57.102Z,1014.12
2023-02-23T03:25:30.519Z,1014.32
2023-02-23T03:26:01.013Z,1014.32
2023-02-23T03:26:33.900Z,1014.22
2023-02-23T03:27:05.204Z,1014.22
2023-02-23T03:27:38.036Z,1014.22
2023-02-23T03:28:09.160Z,1014.22
2023-02-23T03:28:42.853Z,1014.22
2023-02-23T03:29:13.250Z,1014.22
2023-02-23T03:29:46.090Z,1014.12
2023-02-23T03:30:18.174Z,1014.12
2023-02-23T03:30:50.403Z,1014.32
2023-02-23T03:31:21.412Z,1014.32
2023-02-23T03:31:54.084Z,1014.22
2023-02-23T03:32:25.335Z,1014.42
2023-02-23T03:32:58.185Z,1014.42
2023-02-23T03:33:29.093Z,1014.32
2023-02-23T03:34:01.972Z,1014.32
2023-02-23T03:34:33.305Z,1014.42
2023-02-23T03:35:06.271Z,1014.42
2023-02-23T03:35:37.148Z,1014.32
2023-02-23T03:36:10.348Z,1014.32
2023-02-23T03:36:41.325Z,1014.32
2023-02-23T03:37:14.170Z,1014.32
2023-02-23T03:37:45.222Z,1014.32
2023-02-23T03:38:18.053Z,1014.32
2023-02-23T03:38:49.030Z,1014.53
2023-02-23T03:39:21.980Z,1014.53
2023-02-23T03:39:53.282Z,1014.42
2023-02-23T03:40:26.415Z,1014.22
2023-02-23T03:40:57.060Z,1014.22
2023-02-23T03:41:30.127Z,1014.22
2023-02-23T03:42:01.248Z,1014.22
2023-02-23T03:42:35.021Z,1014.32
2023-02-23T03:43:05.164Z,1014.32
2023-02-23T03:43:38.156Z,1014.42
2023-02-23T03:44:09.082Z,1014.42
2023-02-23T03:44:42.008Z,1014.22
2023-02-23T03:45:14.088Z,1014.22
2023-02-23T03:45:46.108Z,1014.42
2023-02-23T03:46:17.119Z,1014.42
2023-02-23T03:46:49.967Z,1014.22
2023-02-23T03:47:21.239Z,1014.22
2023-02-23T03:47:55.098Z,1014.53
2023-02-23T03:48:25.162Z,1014.22
2023-02-23T03:48:58.823Z,1014.22
2023-02-23T03:49:29.279Z,1014.53
2023-02-23T03:50:02.516Z,1014.53
2023-02-23T03:50:33.146Z,1014.32
2023-02-23T03:51:06.192Z,1014.32
2023-02-23T03:51:37.088Z,1014.42
2023-02-23T03:52:10.176Z,1014.42
2023-02-23T03:52:41.274Z,1014.53
2023-02-23T03:53:14.113Z,1014.53
2023-02-23T03:53:45.091Z,1014.42
2023-02-23T03:54:21.828Z,1014.42
2023-02-23T03:54:49.327Z,1014.53
2023-02-23T03:55:21.433Z,1014.53
2023-02-23T03:55:54.794Z,1014.53
2023-02-23T03:56:25.155Z,1014.42
2023-02-23T03:56:57.813Z,1014.42
2023-02-23T03:57:29.115Z,1014.42
2023-02-23T03:58:02.338Z,1014.42
2023-02-23T03:58:33.239Z,1014.63
2023-02-23T03:59:06.037Z,1014.63
2023-02-23T03:59:37.215Z,1014.53
2023-02-23T04:00:11.185Z,1014.53
2023-02-23T04:00:41.073Z,1014.32
2023-02-23T04:01:14.019Z,1014.32
2023-02-23T04:01:45.160Z,1014.42
2023-02-23T04:02:18.257Z,1014.42
2023-02-23T04:02:49.104Z,1014.32
2023-02-23T04:03:22.122Z,1014.32
2023-02-23T04:03:53.168Z,1014.22
2023-02-23T04:04:25.904Z,1014.32
2023-02-23T04:04:57.132Z,1014.32
2023-02-23T04:05:31.345Z,1014.73
2023-02-23T04:06:01.159Z,1014.73
2023-02-23T04:06:34.082Z,1014.32
2023-02-23T04:07:05.201Z,1014.32
2023-02-23T04:07:38.316Z,1014.32
2023-02-23T04:08:09.057Z,1014.32
2023-02-23T04:08:41.997Z,1014.42
2023-02-23T04:09:13.295Z,1014.42
2023-02-23T04:09:46.970Z,1014.42
2023-02-23T04:10:17.494Z,1014.42
2023-02-23T04:10:50.198Z,1014.53
2023-02-23T04:11:21.392Z,1014.53
2023-02-23T04:11:54.096Z,1014.42
2023-02-23T04:12:25.126Z,1014.22
2023-02-23T04:12:58.203Z,1014.22
2023-02-23T04:13:28.943Z,1014.32
2023-02-23T04:14:02.026Z,1014.32
2023-02-23T04:14:33.236Z,1014.32
2023-02-23T04:15:07.112Z,1014.32
2023-02-23T04:15:37.273Z,1014.32
2023-02-23T04:16:10.220Z,1014.32
2023-02-23T04:16:41.076Z,1014.32
2023-02-23T04:17:13.988Z,1014.32
2023-02-23T04:17:45.178Z,1014.22
2023-02-23T04:18:18.976Z,1014.22
2023-02-23T04:18:49.038Z,1014.22
2023-02-23T04:19:21.887Z,1014.22
2023-02-23T04:19:53.122Z,1014.53
2023-02-23T04:20:26.317Z,1014.32
2023-02-23T04:20:57.111Z,1014.32
2023-02-23T04:21:30.030Z,1014.32
2023-02-23T04:22:01.350Z,1014.32
2023-02-23T04:22:34.196Z,1014.12
2023-02-23T04:23:05.263Z,1014.12
2023-02-23T04:23:39.179Z,1014.32
2023-02-23T04:24:09.076Z,1014.32
2023-02-23T04:24:42.046Z,1014.42
2023-02-23T04:25:13.640Z,1014.42
2023-02-23T04:25:46.133Z,1014.32
2023-02-23T04:26:17.092Z,1014.32
2023-02-23T04:26:50.118Z,1014.42
2023-02-23T04:27:21.200Z,1014.42
2023-02-23T04:28:00.243Z,1014.53
2023-02-23T04:28:25.133Z,1014.42
2023-02-23T04:28:57.236Z,1014.42
2023-02-23T04:29:29.420Z,1014.32
2023-02-23T04:30:02.541Z,1014.32
2023-02-23T04:30:33.394Z,1014.22
2023-02-23T04:31:05.239Z,1014.22
2023-02-23T04:31:38.096Z,1014.12
2023-02-23T04:32:09.408Z,1014.12
2023-02-23T04:32:42.490Z,1014.32
2023-02-23T04:33:13.090Z,1014.32
2023-02-23T04:33:45.993Z,1014.42
2023-02-23T04:34:17.171Z,1014.42
2023-02-23T04:34:49.980Z,1014.53
2023-02-23T04:35:21.591Z,1014.53
2023-02-23T04:35:54.164Z,1014.22
2023-02-23T04:36:25.174Z,1014.22
2023-02-23T04:36:57.919Z,1014.22
2023-02-23T04:37:29.272Z,1014.32
2023-02-23T04:38:02.334Z,1014.32
2023-02-23T04:38:33.084Z,1014.53
2023-02-23T04:39:07.219Z,1014.53
2023-02-23T04:39:37.718Z,1014.63
2023-02-23T04:40:10.111Z,1014.63
2023-02-23T04:40:41.089Z,1014.53
2023-02-23T04:41:14.159Z,1014.53
2023-02-23T04:41:45.192Z,1014.53
2023-02-23T04:42:17.872Z,1014.53
2023-02-23T04:42:49.085Z,1014.53
2023-02-23T04:43:22.110Z,1014.53
2023-02-23T04:43:53.242Z,1014.22
2023-02-23T04:44:25.935Z,1014.42
2023-02-23T04:44:57.190Z,1014.42
2023-02-23T04:45:31.148Z,1014.53
2023-02-23T04:46:01.202Z,1014.53
2023-02-23T04:46:33.972Z,1014.53
2023-02-23T04:47:05.224Z,1014.53
2023-02-23T04:47:38.909Z,1014.53
2023-02-23T04:48:09.218Z,1014.53
2023-02-23T04:48:42.122Z,1014.32
2023-02-23T04:49:13.216Z,1014.32
2023-02-23T04:49:46.140Z,1014.53
2023-02-23T04:50:17.436Z,1014.53
2023-02-23T04:50:49.963Z,1014.32
2023-02-23T04:51:21.167Z,1014.32
2023-02-23T04:51:37.219Z,1014.42
2023-02-23T04:52:09.271Z,1014.42
2023-02-23T04:52:41.091Z,1014.53
2023-02-23T04:53:14.393Z,1014.53
2023-02-23T04:53:45.292Z,1014.53
2023-02-23T04:54:18.007Z,1014.53
2023-02-23T04:54:49.067Z,1014.42
2023-02-23T04:55:05.511Z,1014.42
2023-02-23T04:55:36.936Z,1014.42
2023-02-23T04:56:09.153Z,1014.42
2023-02-23T04:56:41.190Z,1014.42
2023-02-23T04:57:13.157Z,1014.42
2023-02-23T04:57:46.027Z,1014.42
2023-02-23T04:58:17.233Z,1014.42
2023-02-23T04:58:49.912Z,1014.22
2023-02-23T04:59:21.103Z,1014.22
2023-02-23T04:59:54.095Z,1014.32
2023-02-23T05:00:26.344Z,1014.53
2023-02-23T05:00:58.172Z,1014.53
2023-02-23T05:01:29.154Z,1014.42
2023-02-23T05:02:02.186Z,1014.42
2023-02-23T05:02:33.017Z,1014.42
2023-02-23T05:03:06.114Z,1014.42
2023-02-23T05:03:37.220Z,1014.53
2023-02-23T05:04:10.061Z,1014.53
2023-02-23T05:04:41.117Z,1014.63
2023-02-23T05:05:17.177Z,1014.63
2023-02-23T05:05:45.202Z,1014.73
2023-02-23T05:06:17.933Z,1014.73
2023-02-23T05:06:49.072Z,1014.42
2023-02-23T05:07:22.071Z,1014.42
2023-02-23T05:07:53.291Z,1014.32
2023-02-23T05:08:27.001Z,1014.32
2023-02-23T05:08:57.117Z,1014.32
2023-02-23T05:09:30.079Z,1014.53
2023-02-23T05:10:01.553Z,1014.53
2023-02-23T05:10:33.953Z,1014.53
2023-02-23T05:11:05.262Z,1014.53
2023-02-23T05:11:38.120Z,1014.22
2023-02-23T05:12:09.239Z,1014.22
2023-02-23T05:12:42.189Z,1014.42
2023-02-23T05:13:13.291Z,1014.42
2023-02-23T05:13:46.842Z,1014.42
2023-02-23T05:14:17.191Z,1014.42
2023-02-23T05:14:50.099Z,1014.42
2023-02-23T05:15:22.354Z,1014.42
2023-02-23T05:15:57.126Z,1014.63
2023-02-23T05:16:25.185Z,1014.53
2023-02-23T05:16:58.034Z,1014.53
2023-02-23T05:17:29.173Z,1014.63
2023-02-23T05:18:02.173Z,1014.63
2023-02-23T05:18:33.141Z,1014.53
2023-02-23T05:19:06.917Z,1014.53
2023-02-23T05:19:37.131Z,1014.63
2023-02-23T05:20:10.297Z,1014.63
2023-02-23T05:20:41.195Z,1014.53
2023-02-23T05:21:13.934Z,1014.53
2023-02-23T05:21:45.123Z,1014.42
2023-02-23T05:22:18.195Z,1014.42
2023-02-23T05:22:49.077Z,1014.42
2023-02-23T05:23:22.016Z,1014.42
2023-02-23T05:23:53.198Z,1014.63
2023-02-23T05:24:26.236Z,1014.53
2023-02-23T05:24:57.557Z,1014.53
2023-02-23T05:25:31.540Z,1014.53
2023-02-23T05:26:01.322Z,1014.53
2023-02-23T05:26:33.741Z,1014.42
2023-02-23T05:27:05.141Z,1014.42
2023-02-23T05:27:38.175Z,1014.53
2023-02-23T05:28:09.189Z,1014.53
2023-02-23T05:28:42.790Z,1014.63
2023-02-23T05:29:13.209Z,1014.63
2023-02-23T05:29:46.903Z,1014.53
2023-02-23T05:30:17.968Z,1014.53
2023-02-23T05:30:50.559Z,1014.53
2023-02-23T05:31:21.585Z,1014.53
2023-02-23T05:31:54.405Z,1014.53
2023-02-23T05:32:25.206Z,1014.32
2023-02-23T05:32:58.083Z,1014.32
2023-02-23T05:33:29.180Z,1014.53
2023-02-23T05:34:02.078Z,1014.53
2023-02-23T05:34:33.282Z,1014.53
2023-02-23T05:35:07.058Z,1014.53
2023-02-23T05:35:37.298Z,1014.63
2023-02-23T05:36:09.981Z,1014.63
2023-02-23T05:36:41.194Z,1014.32
2023-02-23T05:37:14.130Z,1014.32
2023-02-23T05:37:45.034Z,1014.42
2023-02-23T05:38:17.931Z,1014.42
2023-02-23T05:38:49.256Z,1014.42
2023-02-23T05:39:22.097Z,1014.42
2023-02-23T05:39:53.117Z,1014.63
2023-02-23T05:40:26.165Z,1014.53
2023-02-23T05:40:57.212Z,1014.53
2023-02-23T05:41:29.962Z,1014.53
2023-02-23T05:42:01.054Z,1014.53
2023-02-23T05:42:34.184Z,1014.53
2023-02-23T05:43:05.182Z,1014.53
2023-02-23T05:43:37.872Z,1014.32
2023-02-23T05:44:09.230Z,1014.32
2023-02-23T05:44:42.211Z,1014.63
2023-02-23T05:45:14.110Z,1014.63
2023-02-23T05:45:46.200Z,1014.42
2023-02-23T05:46:17.280Z,1014.42
2023-02-23T05:46:50.112Z,1014.22
2023-02-23T05:47:21.097Z,1014.22
2023-02-23T05:47:53.978Z,1014.42
2023-02-23T05:48:25.244Z,1014.63
2023-02-23T05:48:58.221Z,1014.63
2023-02-23T05:49:29.256Z,1014.42
2023-02-23T05:50:02.370Z,1014.42
2023-02-23T05:50:33.260Z,1014.53
2023-02-23T05:51:06.677Z,1014.53
2023-02-23T05:51:37.260Z,1014.53
2023-02-23T05:52:10.129Z,1014.53
2023-02-23T05:52:41.163Z,1014.63
2023-02-23T05:53:14.024Z,1014.63
2023-02-23T05:53:45.234Z,1014.63
2023-02-23T05:54:18.931Z,1014.63
2023-02-23T05:54:49.102Z,1014.53
2023-02-23T05:55:22.211Z,1014.53
2023-02-23T05:55:53.182Z,1014.32
2023-02-23T05:56:25.846Z,1014.53
2023-02-23T05:56:57.133Z,1014.53
2023-02-23T05:57:30.170Z,1014.42
2023-02-23T05:58:01.363Z,1014.42
2023-02-23T05:58:33.966Z,1014.53
2023-02-23T05:59:05.328Z,1014.53
2023-02-23T05:59:38.142Z,1014.42
2023-02-23T06:00:10.268Z,1014.42
2023-02-23T06:00:42.132Z,1014.32
2023-02-23T06:01:13.361Z,1014.32
2023-02-23T06:01:45.842Z,1014.42
2023-02-23T06:02:17.342Z,1014.42
2023-02-23T06:02:50.139Z,1014.63
2023-02-23T06:03:21.366Z,1014.63
2023-02-23T06:03:54.869Z,1014.53
2023-02-23T06:04:25.243Z,1014.42
2023-02-23T06:04:58.844Z,1014.42
2023-02-23T06:05:29.426Z,1014.63
2023-02-23T06:06:02.171Z,1014.63
2023-02-23T06:06:33.209Z,1014.83
2023-02-23T06:07:06.312Z,1014.83
2023-02-23T06:07:37.248Z,1014.53
2023-02-23T06:08:10.954Z,1014.53
2023-02-23T06:08:41.223Z,1014.53
2023-02-23T06:09:13.969Z,1014.53
2023-02-23T06:09:45.236Z,1014.63
2023-02-23T06:10:18.263Z,1014.63
2023-02-23T06:10:49.082Z,1014.53
2023-02-23T06:11:22.262Z,1014.53
2023-02-23T06:11:53.222Z,1014.53
2023-02-23T06:12:26.257Z,1014.73
2023-02-23T06:12:57.124Z,1014.73
2023-02-23T06:13:29.870Z,1014.53
2023-02-23T06:14:01.217Z,1014.53
2023-02-23T06:14:34.889Z,1014.73
2023-02-23T06:15:06.270Z,1014.73
2023-02-23T06:15:38.241Z,1014.73
2023-02-23T06:16:09.488Z,1014.73
2023-02-23T06:16:42.059Z,1014.63
2023-02-23T06:17:13.170Z,1014.63
2023-02-23T06:17:46.189Z,1014.53
2023-02-23T06:18:17.026Z,1014.53
2023-02-23T06:18:49.978Z,1014.73
2023-02-23T06:19:21.193Z,1014.73
2023-02-23T06:19:55.005Z,1014.73
2023-02-23T06:20:25.470Z,1014.73
2023-02-23T06:20:57.937Z,1014.73
2023-02-23T06:21:29.268Z,1014.63
2023-02-23T06:22:03.503Z,1014.63
2023-02-23T06:22:33.449Z,1014.63
2023-02-23T06:23:06.180Z,1014.63
2023-02-23T06:23:37.576Z,1014.73
2023-02-23T06:24:10.072Z,1014.73
2023-02-23T06:24:41.417Z,1014.73